»·PEaware :: N726PG KLAS-KASE

N726PG :: KLAS-KASE

FLIGHT INFORMATION

Flight Status: Arrived
Operator: Privately registered:
United States
More flights under this callsign
Pilot: Cade D. (13179)
Aircraft: CESSNA 750 CITATION 10
(C750)
More flights by this aircraft type
Origin: KLAS McCarran Intl
United States
Destination: KASE Aspen-Pitkin Co/Sardy
United States
More flights between these airports :: More routes between these airports
Route: +KLAS TRALR9 DVC LOYYD SKIER DBL KASE
File this flight plan on PilotEdge
Remarks:
Altitude:
(Current/Filed)
43,000ft
Speed:
(Current/Filed)
512kts
Departed: 24-Nov-17 05:37 PM
Arrived: 24-Nov-17 06:58 PM
Distance/Time
Traveled:
436nm/1:21
Distance/Time
To Go:
Arrived

Flight Plot

Page will automatically refresh every two minutes.

Flight plan parsing failed; only flown route is shown


Map Options




Map Legend


Flown Route
Filed Route
Departure Airport
Arrival Airport
Navaid (VOR, NDB)
Fix

Horizontal Profiles

Position Reports

Time Latitude Longitude Heading Altitude Ground
Speed
24-Nov-17 17:11 36.080662 -115.141900 69 2185ft 0kts
24-Nov-17 17:12 36.097456 -115.161766 0 2185ft 0kts
24-Nov-17 17:13 36.091325 -115.164989 59 2185ft 0kts
24-Nov-17 17:14 36.100000 -115.162327 271 2185ft 0kts
24-Nov-17 17:15 36.100000 -115.162327 271 2185ft 0kts
24-Nov-17 17:16 36.100000 -115.162327 271 2185ft 0kts
24-Nov-17 17:17 36.100000 -115.162327 271 2185ft 0kts
24-Nov-17 17:18 36.100000 -115.162327 271 2185ft 0kts
24-Nov-17 17:19 36.100000 -115.162327 271 2185ft 0kts
24-Nov-17 17:20 36.100000 -115.162327 271 2185ft 0kts
24-Nov-17 17:21 36.100000 -115.162330 271 2185ft 0kts
24-Nov-17 17:22 36.100000 -115.162331 271 2185ft 0kts
24-Nov-17 17:23 36.100000 -115.162331 271 2185ft 0kts
24-Nov-17 17:24 36.100000 -115.162331 271 2185ft 0kts
24-Nov-17 17:25 36.100000 -115.162331 271 2185ft 0kts
24-Nov-17 17:26 36.100000 -115.162331 271 2185ft 0kts
24-Nov-17 17:27 36.100000 -115.162331 271 2185ft 0kts
24-Nov-17 17:28 36.100000 -115.162331 271 2185ft 0kts
24-Nov-17 17:29 36.100000 -115.162331 271 2185ft 0kts
24-Nov-17 17:30 36.100000 -115.162331 271 2185ft 0kts
24-Nov-17 17:31 36.100000 -115.162331 271 2185ft 0kts
24-Nov-17 17:32 36.100000 -115.162331 271 2185ft 0kts
24-Nov-17 17:33 36.100000 -115.162331 271 2185ft 0kts
24-Nov-17 17:34 36.100000 -115.162331 271 2185ft 0kts
24-Nov-17 17:35 36.100000 -115.162331 271 2185ft 0kts
24-Nov-17 17:36 36.099993 -115.162794 119 2185ft 10kts
24-Nov-17 17:37 36.097881 -115.159607 37 2185ft 5kts
24-Nov-17 17:38 36.099845 -115.157513 102 2185ft 0kts
24-Nov-17 17:39 36.099843 -115.157498 102 2185ft 0kts
24-Nov-17 17:40 36.099305 -115.156662 200 2185ft 0kts
24-Nov-17 17:41 36.099291 -115.156668 200 2185ft 1kts
24-Nov-17 17:42 36.077718 -115.169189 204 2364ft 189kts
24-Nov-17 17:43 36.023268 -115.199310 206 5838ft 233kts
24-Nov-17 17:44 35.976323 -115.274262 217 7461ft 315kts
24-Nov-17 17:45 35.896368 -115.275953 156 10511ft 296kts
24-Nov-17 17:46 35.862704 -115.184285 88 12880ft 319kts
24-Nov-17 17:47 35.866049 -115.073062 83 15431ft 331kts
24-Nov-17 17:48 35.907952 -114.970041 57 17729ft 344kts
24-Nov-17 17:49 35.956251 -114.866166 62 20015ft 355kts
24-Nov-17 17:50 35.998985 -114.753306 64 22203ft 369kts
24-Nov-17 17:51 36.043761 -114.637159 64 24539ft 380kts
24-Nov-17 17:52 36.090077 -114.517184 64 26946ft 394kts
24-Nov-17 17:53 36.137985 -114.392040 64 29240ft 409kts
24-Nov-17 17:54 36.187411 -114.262571 64 31388ft 423kts
24-Nov-17 17:55 36.212373 -114.118905 84 33369ft 436kts
24-Nov-17 17:56 36.226253 -113.967826 81 35109ft 448kts
24-Nov-17 17:57 36.245445 -113.813737 81 37005ft 450kts
24-Nov-17 17:58 36.262806 -113.660981 81 38919ft 447kts
24-Nov-17 17:59 36.280337 -113.508550 81 40542ft 445kts
24-Nov-17 18:00 36.297425 -113.356768 81 41993ft 444kts
24-Nov-17 18:01 36.316577 -113.205177 73 43300ft 444kts
24-Nov-17 18:02 36.369553 -113.067826 61 44474ft 443kts
24-Nov-17 18:03 36.423412 -112.929220 65 45047ft 455kts
24-Nov-17 18:04 36.476124 -112.783752 65 45052ft 466kts
24-Nov-17 18:05 36.530435 -112.635968 65 45060ft 474kts
24-Nov-17 18:06 36.585385 -112.485766 65 45083ft 481kts
24-Nov-17 18:07 36.640924 -112.332985 65 45099ft 486kts
24-Nov-17 18:08 36.696719 -112.179013 65 45090ft 490kts
24-Nov-17 18:09 36.752885 -112.023905 65 45076ft 493kts
24-Nov-17 18:10 36.809218 -111.867055 65 45058ft 495kts
24-Nov-17 18:11 36.865205 -111.709989 65 45034ft 496kts
24-Nov-17 18:12 36.921134 -111.552140 65 45026ft 497kts
24-Nov-17 18:13 36.976949 -111.394015 66 45022ft 497kts
24-Nov-17 18:14 37.032394 -111.235899 66 45021ft 497kts
24-Nov-17 18:15 37.087430 -111.077604 66 45021ft 496kts
24-Nov-17 18:16 37.142787 -110.919222 67 45015ft 495kts
24-Nov-17 18:17 37.197545 -110.760704 68 45010ft 497kts
24-Nov-17 18:18 37.253228 -110.600698 68 45011ft 501kts
24-Nov-17 18:19 37.308236 -110.439437 66 45002ft 506kts
24-Nov-17 18:20 37.363744 -110.276424 68 45020ft 509kts
24-Nov-17 18:21 37.419253 -110.112150 68 45034ft 509kts
24-Nov-17 18:22 37.473667 -109.948833 68 45032ft 508kts
24-Nov-17 18:23 37.528703 -109.784413 68 45046ft 505kts
24-Nov-17 18:24 37.583094 -109.622269 67 45058ft 501kts
24-Nov-17 18:25 37.636637 -109.460366 68 45045ft 500kts
24-Nov-17 18:26 37.690296 -109.298227 68 45039ft 500kts
24-Nov-17 18:27 37.743466 -109.136420 68 45046ft 498kts
24-Nov-17 18:28 37.795768 -108.974681 68 45046ft 497kts
24-Nov-17 18:29 37.881250 -108.839843 38 45050ft 499kts
24-Nov-17 18:30 37.991210 -108.733124 40 45037ft 498kts
24-Nov-17 18:31 38.094649 -108.616126 41 45018ft 498kts
24-Nov-17 18:32 38.156914 -108.545924 40 45008ft 499kts
24-Nov-17 18:33 38.219358 -108.476774 41 45004ft 499kts
24-Nov-17 18:34 38.323769 -108.359641 41 45003ft 499kts
24-Nov-17 18:35 38.427760 -108.242607 41 45003ft 500kts
24-Nov-17 18:36 38.531948 -108.125305 41 45008ft 499kts
24-Nov-17 18:37 38.633829 -108.010286 41 42599ft 478kts
24-Nov-17 18:38 38.730398 -107.900177 41 39615ft 452kts
24-Nov-17 18:39 38.821430 -107.795962 41 36968ft 427kts
24-Nov-17 18:40 38.907561 -107.697269 41 34570ft 401kts
24-Nov-17 18:41 38.988447 -107.604036 41 32370ft 382kts
24-Nov-17 18:42 39.065802 -107.514759 41 30322ft 366kts
24-Nov-17 18:43 39.140384 -107.428421 41 28357ft 353kts
24-Nov-17 18:44 39.179381 -107.318702 81 26511ft 341kts
24-Nov-17 18:45 39.195139 -107.199630 77 24714ft 333kts
24-Nov-17 18:46 39.214470 -107.085870 77 22956ft 314kts
24-Nov-17 18:47 39.232041 -106.978868 78 21333ft 296kts
24-Nov-17 18:48 39.249048 -106.876911 77 19743ft 286kts
24-Nov-17 18:49 39.285733 -106.789448 29 17535ft 296kts
24-Nov-17 18:50 39.365311 -106.766308 7 15499ft 280kts
24-Nov-17 18:51 39.441563 -106.757530 0 13477ft 262kts
24-Nov-17 18:52 39.479744 -106.805265 259 13665ft 189kts
24-Nov-17 18:53 39.450802 -106.857650 231 13718ft 176kts
24-Nov-17 18:54 39.449461 -106.913075 309 13692ft 170kts
24-Nov-17 18:55 39.475240 -106.961650 261 13608ft 163kts
24-Nov-17 18:56 39.446197 -107.008098 220 13667ft 172kts
24-Nov-17 18:57 39.406136 -107.035320 159 13645ft 172kts
24-Nov-17 18:58 39.371463 -106.994452 130 13660ft 172kts
24-Nov-17 18:59 39.338887 -106.947965 138 13584ft 173kts
24-Nov-17 19:00 39.303140 -106.911393 148 11719ft 160kts
24-Nov-17 19:01 39.263779 -106.888622 159 8982ft 150kts
24-Nov-17 19:02 39.228672 -106.871491 161 7741ft 112kts
24-Nov-17 19:03 39.220301 -106.866643 72 7741ft 6kts
24-Nov-17 19:04 39.220355 -106.866444 70 7741ft 1kts
24-Nov-17 19:05 39.220361 -106.866421 70 7741ft 0kts
24-Nov-17 19:06 39.221256 -106.866577 339 7741ft 12kts
24-Nov-17 19:07 39.224145 -106.867308 338 7741ft 0kts
24-Nov-17 19:08 39.224145 -106.867308 338 7741ft 0kts
24-Nov-17 19:09 39.224145 -106.867308 338 7741ft 0kts

Navigation Log

Ident Type
Flight plan parsing failed, navigation log unavailable